Time;durP1;ratioP1;P1;durP2;ratioP2;P2;SDS_P1;SDS_P2;PMS_P1;PMS_P2;Temp;Humidity;BMP_temperature;BMP_pressure;BME280_temperature;BME280_humidity;BME280_pressure;Samples;Min_cycle;Max_cycle;Signal;HPM_P1;HPM_P2
2021/12/24 00:01:00;;;;;;;4.80;3.28;;;16.70;60.30;;;;;;5053877;28;45326;-75
2021/12/24 00:03:27;;;;;;;5.30;3.55;;;16.70;60.10;;;;;;5061435;28;45379;-75
2021/12/24 00:05:55;;;;;;;5.07;3.72;;;16.70;60.20;;;;;;5057908;28;47463;-75
2021/12/24 00:08:22;;;;;;;5.25;3.42;;;16.70;60.50;;;;;;5057810;28;45483;-75
2021/12/24 00:10:57;;;;;;;5.63;3.90;;;16.70;60.80;;;;;;5057671;28;45643;-75
2021/12/24 00:13:25;;;;;;;5.75;3.70;;;16.60;60.50;;;;;;5067546;28;45424;-74
2021/12/24 00:15:58;;;;;;;4.20;3.10;;;16.70;60.60;;;;;;5055109;28;46592;-75
2021/12/24 00:18:38;;;;;;;6.13;3.80;;;16.70;60.40;;;;;;5055638;28;45354;-75
2021/12/24 00:37:48;;;;;;;5.28;3.13;;;16.70;61.20;;;;;;5048408;28;46272;-75
2021/12/24 00:40:19;;;;;;;4.63;3.40;;;16.70;60.90;;;;;;5054761;28;45296;-75
2021/12/24 00:42:49;;;;;;;4.65;3.30;;;16.70;61.10;;;;;;5056289;28;45355;-75
2021/12/24 00:45:18;;;;;;;6.68;3.63;;;16.70;60.80;;;;;;5057350;28;45289;-75
2021/12/24 00:47:46;;;;;;;4.95;3.53;;;16.60;61.30;;;;;;5059734;28;46199;-75
2021/12/24 00:50:18;;;;;;;5.45;3.55;;;16.70;61.40;;;;;;5059620;28;45188;-74
2021/12/24 00:52:53;;;;;;;5.80;3.72;;;16.60;61.20;;;;;;5053525;28;45324;-75
2021/12/24 00:55:21;;;;;;;5.05;3.38;;;16.70;61.10;;;;;;5057685;28;45528;-75
2021/12/24 00:57:50;;;;;;;4.60;3.20;;;16.70;61.30;;;;;;5058967;28;46515;-75
2021/12/24 01:00:20;;;;;;;6.10;3.65;;;16.70;61.50;;;;;;5057681;28;45291;-75
2021/12/24 01:02:48;;;;;;;4.63;3.40;;;16.70;61.30;;;;;;5061562;28;45329;-75
2021/12/24 01:05:16;;;;;;;5.88;3.33;;;16.70;61.10;;;;;;5052580;28;45327;-75
2021/12/24 01:07:45;;;;;;;4.40;3.10;;;16.70;61.40;;;;;;5057007;28;45606;-74
2021/12/24 01:10:16;;;;;;;5.68;3.35;;;16.70;61.40;;;;;;5052602;28;45281;-74
2021/12/24 01:12:43;;;;;;;4.65;3.08;;;16.70;61.50;;;;;;5061838;28;45157;-74
2021/12/24 01:15:12;;;;;;;4.50;3.20;;;16.70;61.40;;;;;;5052569;28;45427;-75
2021/12/24 01:17:44;;;;;;;4.63;3.30;;;16.70;61.10;;;;;;5057301;28;45496;-75
2021/12/24 01:20:21;;;;;;;4.53;3.13;;;16.70;60.80;;;;;;5058297;28;45235;-75
2021/12/24 01:25:38;;;;;;;4.28;3.13;;;16.70;61.10;;;;;;5049608;28;46611;-74
2021/12/24 01:39:09;;;;;;;4.50;3.03;;;16.60;61.80;;;;;;5028659;28;46415;-74
2021/12/24 01:44:26;;;;;;;5.15;2.90;;;16.60;61.80;;;;;;5056333;28;45375;-75
2021/12/24 01:46:57;;;;;;;3.03;2.42;;;16.60;61.90;;;;;;5055910;28;45157;-75
2021/12/24 01:49:25;;;;;;;3.72;2.78;;;16.60;61.40;;;;;;5055802;28;47382;-75
2021/12/24 01:51:53;;;;;;;4.72;3.08;;;16.60;61.40;;;;;;5047286;28;45399;-75
2021/12/24 01:54:20;;;;;;;3.15;2.60;;;16.70;61.80;;;;;;5047055;28;45392;-74
2021/12/24 01:56:48;;;;;;;4.32;2.88;;;16.70;61.30;;;;;;5046968;28;45355;-75
2021/12/24 01:59:16;;;;;;;3.83;2.75;;;16.70;61.50;;;;;;5046500;28;46200;-75
2021/12/24 02:01:43;;;;;;;4.40;2.97;;;16.70;61.70;;;;;;5047707;28;45142;-75
2021/12/24 02:04:13;;;;;;;4.57;2.72;;;16.70;62.20;;;;;;5071815;28;45436;-75
2021/12/24 02:06:41;;;;;;;3.90;2.78;;;16.70;62.10;;;;;;5077570;28;45560;-75
2021/12/24 02:09:08;;;;;;;4.55;3.00;;;16.70;62.20;;;;;;5056833;28;45570;-75
2021/12/24 02:11:37;;;;;;;4.82;3.22;;;16.60;61.80;;;;;;5091044;28;45238;-75
2021/12/24 02:14:07;;;;;;;5.03;3.15;;;16.70;62.60;;;;;;5084082;28;45251;-75
2021/12/24 02:16:45;;;;;;;4.95;2.83;;;16.70;62.70;;;;;;5054013;28;45310;-75
2021/12/24 02:30:37;;;;;;;4.30;3.00;;;16.70;62.70;;;;;;5063396;28;45738;-75
2021/12/24 02:33:05;;;;;;;4.40;2.95;;;16.60;62.20;;;;;;5062867;28;45194;-75
2021/12/24 02:35:32;;;;;;;3.85;2.60;;;16.70;62.10;;;;;;5063535;28;45213;-75
2021/12/24 02:38:02;;;;;;;4.18;2.92;;;16.70;62.00;;;;;;5050098;28;45498;-75
2021/12/24 02:40:30;;;;;;;5.03;2.90;;;16.70;62.00;;;;;;5066498;28;45329;-75
2021/12/24 02:42:58;;;;;;;2.80;2.50;;;16.70;62.30;;;;;;5072767;28;45252;-74
2021/12/24 02:45:27;;;;;;;4.30;2.70;;;16.70;62.10;;;;;;5051912;28;45193;-75
2021/12/24 02:56:09;;;;;;;4.07;2.97;;;16.70;62.80;;;;;;5069344;28;45253;-75
2021/12/24 02:58:41;;;;;;;3.92;2.67;;;16.70;62.70;;;;;;5055886;28;45374;-74
2021/12/24 03:01:09;;;;;;;4.03;2.80;;;16.70;62.20;;;;;;5056489;28;46336;-75
2021/12/24 03:03:36;;;;;;;5.55;3.10;;;16.70;62.40;;;;;;5064435;28;45483;-75
2021/12/24 03:06:03;;;;;;;3.42;2.65;;;16.70;62.50;;;;;;5061296;28;45273;-75
2021/12/24 03:08:32;;;;;;;3.92;2.83;;;16.70;62.40;;;;;;5056854;28;45352;-75
2021/12/24 03:10:59;;;;;;;4.25;2.45;;;16.70;62.50;;;;;;5068611;28;45467;-75
2021/12/24 03:13:27;;;;;;;4.00;2.50;;;16.70;62.60;;;;;;5051566;28;45313;-75
2021/12/24 03:15:57;;;;;;;3.60;2.53;;;16.70;62.10;;;;;;5056715;28;45347;-75
2021/12/24 03:18:25;;;;;;;4.22;2.80;;;16.70;62.40;;;;;;5061009;28;45489;-75
2021/12/24 03:20:58;;;;;;;4.07;2.63;;;16.70;62.10;;;;;;5064243;28;47861;-75
2021/12/24 03:23:35;;;;;;;3.38;2.38;;;16.70;62.10;;;;;;5064604;28;45266;-75
2021/12/24 03:26:05;;;;;;;4.05;2.60;;;16.70;62.10;;;;;;5058177;28;45306;-75
2021/12/24 03:28:32;;;;;;;3.25;2.33;;;16.80;62.00;;;;;;5063275;28;45323;-75
2021/12/24 03:31:00;;;;;;;4.40;2.47;;;16.80;62.10;;;;;;5047008;28;47044;-75
2021/12/24 03:33:28;;;;;;;3.97;2.63;;;16.70;63.10;;;;;;5062208;28;45141;-75
2021/12/24 03:35:55;;;;;;;3.65;2.63;;;16.80;62.30;;;;;;5068966;28;45289;-75
2021/12/24 03:38:21;;;;;;;3.05;2.40;;;16.80;62.50;;;;;;5065502;28;45143;-74
2021/12/24 03:40:48;;;;;;;4.15;2.40;;;16.70;62.40;;;;;;5052123;28;46619;-74
2021/12/24 03:43:17;;;;;;;3.58;2.50;;;16.70;62.50;;;;;;5053512;28;45317;-75
2021/12/24 03:45:54;;;;;;;3.33;2.42;;;16.70;63.60;;;;;;5050606;28;45309;-75
2021/12/24 03:48:26;;;;;;;3.75;2.40;;;16.70;62.50;;;;;;5078370;28;45536;-75
2021/12/24 03:51:00;;;;;;;2.95;2.25;;;16.70;62.80;;;;;;5070760;28;46334;-75
2021/12/24 03:56:11;;;;;;;4.05;2.40;;;16.70;62.90;;;;;;5055275;28;45343;-75
2021/12/24 03:58:39;;;;;;;4.45;2.45;;;16.70;62.80;;;;;;5059856;28;45385;-75
2021/12/24 04:01:06;;;;;;;3.13;2.13;;;16.80;62.60;;;;;;5055225;28;45220;-74
2021/12/24 04:03:33;;;;;;;3.47;2.03;;;16.80;62.90;;;;;;5070214;28;45395;-74
2021/12/24 04:06:00;;;;;;;2.97;1.90;;;16.80;62.90;;;;;;5063450;28;45256;-75
2021/12/24 04:08:27;;;;;;;3.58;2.10;;;16.80;62.80;;;;;;5062512;28;45463;-75
2021/12/24 04:10:54;;;;;;;4.40;2.83;;;16.80;63.10;;;;;;5055550;28;46597;-75
2021/12/24 04:13:20;;;;;;;2.65;2.20;;;16.80;63.30;;;;;;5055637;28;45312;-75
2021/12/24 04:15:49;;;;;;;4.13;2.58;;;16.80;63.10;;;;;;5060693;28;45386;-75
2021/12/24 04:18:21;;;;;;;4.18;2.60;;;16.80;63.50;;;;;;5073051;28;45154;-75
2021/12/24 04:26:17;;;;;;;3.08;2.15;;;16.80;63.30;;;;;;5049342;28;45323;-74
2021/12/24 04:28:43;;;;;;;4.53;2.35;;;16.80;63.20;;;;;;5073197;28;45384;-75
2021/12/24 04:31:12;;;;;;;3.15;2.25;;;16.80;63.50;;;;;;5063596;28;46506;-74
2021/12/24 04:33:45;;;;;;;3.88;2.35;;;16.80;63.50;;;;;;5067730;28;45149;-74
2021/12/24 04:36:33;;;;;;;3.15;2.40;;;16.80;63.20;;;;;;5056221;28;45225;-74
2021/12/24 04:39:23;;;;;;;4.22;2.78;;;16.80;63.40;;;;;;5059915;28;45552;-75
2021/12/24 04:53:11;;;;;;;4.13;2.80;;;16.80;63.40;;;;;;5054770;28;45656;-75
2021/12/24 05:01:21;;;;;;;4.68;2.83;;;16.80;63.80;;;;;;5071065;28;45222;-74
2021/12/24 05:03:50;;;;;;;4.30;2.80;;;16.80;63.50;;;;;;5069186;28;47298;-74
2021/12/24 05:06:29;;;;;;;3.63;2.45;;;16.80;63.50;;;;;;5057262;28;45445;-74
2021/12/24 05:08:59;;;;;;;3.65;2.35;;;16.80;63.70;;;;;;5059499;28;45299;-74
2021/12/24 05:11:27;;;;;;;4.25;2.42;;;16.80;63.50;;;;;;5074573;28;45486;-74
2021/12/24 05:13:55;;;;;;;3.63;2.28;;;16.80;63.50;;;;;;5055583;28;45631;-74
2021/12/24 05:16:25;;;;;;;4.03;2.30;;;16.80;63.70;;;;;;5268464;22;45753;-74
2021/12/24 05:21:47;;;;;;;4.45;2.55;;;16.80;63.70;;;;;;5064614;28;45424;-74
2021/12/24 05:24:16;;;;;;;3.90;2.35;;;16.80;63.70;;;;;;5072474;27;47043;-74
2021/12/24 05:26:47;;;;;;;3.78;2.47;;;16.80;63.70;;;;;;5065653;28;45263;-74
2021/12/24 05:29:15;;;;;;;3.55;2.20;;;16.80;63.50;;;;;;5068127;28;45386;-74
2021/12/24 05:31:43;;;;;;;4.00;2.40;;;16.80;63.80;;;;;;5053523;28;45262;-74
2021/12/24 05:34:14;;;;;;;4.43;2.63;;;16.80;63.80;;;;;;5051883;28;47870;-74
2021/12/24 05:36:41;;;;;;;2.97;2.08;;;16.80;63.80;;;;;;5062847;28;45263;-74
2021/12/24 05:39:08;;;;;;;4.45;2.75;;;16.80;63.70;;;;;;5050326;28;45320;-74
2021/12/24 05:41:35;;;;;;;2.92;2.28;;;16.80;64.00;;;;;;5059445;28;45311;-74
2021/12/24 05:44:02;;;;;;;3.58;2.55;;;16.80;63.80;;;;;;5055330;28;46594;-74
2021/12/24 05:46:29;;;;;;;5.07;2.45;;;16.90;63.80;;;;;;5066853;28;45389;-74
2021/12/24 05:48:56;;;;;;;4.05;2.40;;;16.90;63.60;;;;;;5067419;28;45339;-74
2021/12/24 05:51:24;;;;;;;5.70;2.90;;;16.90;63.60;;;;;;5065979;28;45330;-74
2021/12/24 05:53:51;;;;;;;3.50;2.58;;;16.90;63.60;;;;;;5062064;28;47422;-74
2021/12/24 05:56:18;;;;;;;3.95;2.50;;;16.90;63.50;;;;;;5048647;28;45251;-74
2021/12/24 05:58:45;;;;;;;2.97;2.40;;;16.90;63.40;;;;;;5061343;28;45236;-74
2021/12/24 06:01:12;;;;;;;3.95;2.45;;;16.80;63.50;;;;;;5064371;28;45177;-74
2021/12/24 06:03:39;;;;;;;2.55;2.03;;;16.90;63.40;;;;;;5050054;28;45785;-74
2021/12/24 06:06:06;;;;;;;3.55;2.63;;;16.80;63.50;;;;;;5060979;28;45140;-74
2021/12/24 06:08:34;;;;;;;4.28;2.50;;;16.80;63.40;;;;;;5064941;28;45162;-74
2021/12/24 06:11:01;;;;;;;3.60;2.40;;;16.80;63.30;;;;;;5063398;28;45353;-74
2021/12/24 06:13:29;;;;;;;4.15;2.75;;;16.80;63.50;;;;;;5063988;28;46251;-74
2021/12/24 06:15:56;;;;;;;4.88;2.72;;;16.80;63.70;;;;;;5058311;28;45438;-74
2021/12/24 06:18:25;;;;;;;3.63;2.58;;;16.80;63.80;;;;;;5058795;28;45359;-74
2021/12/24 06:20:53;;;;;;;4.50;2.78;;;16.80;63.90;;;;;;5056697;28;45450;-74
2021/12/24 06:23:21;;;;;;;4.95;2.75;;;16.80;65.10;;;;;;5078042;28;46525;-74
2021/12/24 06:25:51;;;;;;;4.38;2.63;;;16.80;63.60;;;;;;5059253;28;45620;-74
2021/12/24 06:28:19;;;;;;;3.15;2.40;;;16.80;63.90;;;;;;5066335;28;45263;-74
2021/12/24 06:30:46;;;;;;;3.13;2.25;;;16.80;63.80;;;;;;5058187;28;45215;-74
2021/12/24 06:33:13;;;;;;;5.45;2.25;;;16.80;64.00;;;;;;5064519;28;46319;-74
2021/12/24 06:35:41;;;;;;;4.30;2.55;;;16.80;63.70;;;;;;5065817;28;45151;-74
2021/12/24 06:38:08;;;;;;;4.95;2.70;;;16.80;63.80;;;;;;5066052;28;45339;-74
2021/12/24 06:40:36;;;;;;;5.47;2.72;;;16.80;63.70;;;;;;5063199;28;45150;-74
2021/12/24 06:43:05;;;;;;;3.60;2.58;;;16.80;63.80;;;;;;5066830;28;47857;-74
2021/12/24 06:45:33;;;;;;;3.70;2.28;;;16.90;63.70;;;;;;5050424;28;45272;-74
2021/12/24 06:48:01;;;;;;;4.82;2.58;;;16.80;63.50;;;;;;5055945;28;45345;-74
2021/12/24 06:50:29;;;;;;;4.80;2.28;;;16.90;63.20;;;;;;5054886;28;46526;-74
2021/12/24 06:52:56;;;;;;;5.15;2.38;;;16.90;63.10;;;;;;5051114;28;46136;-74
2021/12/24 06:55:23;;;;;;;3.40;2.42;;;16.90;63.10;;;;;;5061020;28;45306;-74
2021/12/24 06:57:50;;;;;;;4.07;2.10;;;16.90;63.00;;;;;;5069213;28;45777;-74
2021/12/24 07:00:21;;;;;;;3.10;1.80;;;16.90;62.90;;;;;;5065742;28;45614;-74
2021/12/24 07:02:49;;;;;;;4.28;2.10;;;16.90;62.80;;;;;;5060748;28;47827;-74
2021/12/24 07:05:17;;;;;;;4.57;2.28;;;16.90;62.80;;;;;;5065336;28;45298;-74
2021/12/24 07:07:43;;;;;;;2.08;1.77;;;16.90;62.60;;;;;;5068382;28;45493;-75
2021/12/24 07:10:11;;;;;;;3.33;2.13;;;17.00;62.80;;;;;;5068394;28;45531;-75
2021/12/24 07:12:38;;;;;;;3.17;2.20;;;17.00;62.90;;;;;;5062858;28;46184;-74
2021/12/24 07:15:05;;;;;;;3.63;1.83;;;17.00;64.10;;;;;;5067092;28;45179;-73
2021/12/24 07:17:33;;;;;;;3.38;1.95;;;16.90;63.00;;;;;;5060506;28;45219;-74
2021/12/24 07:20:00;;;;;;;4.32;2.17;;;16.90;63.20;;;;;;5055430;28;45424;-75
2021/12/24 07:22:27;;;;;;;4.35;2.30;;;16.90;63.70;;;;;;5067189;28;46209;-75
2021/12/24 07:24:54;;;;;;;4.45;2.10;;;16.90;63.50;;;;;;5068273;28;45247;-75
2021/12/24 07:27:21;;;;;;;2.88;2.10;;;16.90;63.50;;;;;;5067164;28;45281;-75
2021/12/24 07:29:48;;;;;;;5.35;2.40;;;16.90;64.20;;;;;;5068104;28;45140;-75
2021/12/24 07:32:15;;;;;;;5.65;1.90;;;16.90;63.90;;;;;;5059240;28;45511;-75
2021/12/24 07:34:43;;;;;;;4.78;2.65;;;16.90;63.80;;;;;;5065961;28;45378;-75
2021/12/24 07:37:10;;;;;;;5.35;2.63;;;16.90;64.80;;;;;;5068781;28;45167;-75
2021/12/24 07:39:37;;;;;;;3.22;2.28;;;16.90;65.00;;;;;;5061610;28;45456;-73
2021/12/24 07:42:04;;;;;;;4.05;2.40;;;16.90;65.20;;;;;;5052290;28;45500;-75
2021/12/24 07:44:34;;;;;;;4.05;2.63;;;16.80;64.10;;;;;;5063072;28;45339;-75
2021/12/24 07:47:03;;;;;;;4.97;2.60;;;16.90;64.90;;;;;;5059932;28;45353;-74
2021/12/24 07:49:37;;;;;;;4.53;2.47;;;16.90;64.70;;;;;;5055268;28;45813;-74
2021/12/24 07:52:09;;;;;;;3.60;2.50;;;16.90;64.90;;;;;;5068451;28;47256;-74
2021/12/24 07:54:38;;;;;;;5.93;2.63;;;16.90;64.90;;;;;;5065735;28;46205;-74
2021/12/24 07:57:06;;;;;;;5.40;2.88;;;16.90;65.20;;;;;;5056053;28;45265;-74
2021/12/24 07:59:36;;;;;;;6.03;2.75;;;16.90;65.50;;;;;;5067284;28;45454;-74
2021/12/24 08:02:03;;;;;;;4.68;2.60;;;16.90;65.50;;;;;;5060126;28;47067;-74
2021/12/24 08:04:31;;;;;;;4.45;2.58;;;16.80;65.40;;;;;;5057899;28;45317;-75
2021/12/24 08:07:01;;;;;;;7.93;3.30;;;16.80;65.20;;;;;;5054013;28;45373;-75
2021/12/24 08:09:31;;;;;;;4.53;3.08;;;16.80;65.40;;;;;;5055746;28;45496;-75
2021/12/24 08:11:58;;;;;;;4.40;2.97;;;16.80;66.10;;;;;;5063714;28;45443;-75
2021/12/24 08:14:24;;;;;;;5.47;3.30;;;16.80;65.40;;;;;;5056561;28;47181;-75
2021/12/24 08:16:51;;;;;;;4.72;2.63;;;16.80;65.40;;;;;;5061809;28;45364;-75
2021/12/24 08:19:18;;;;;;;4.25;2.53;;;16.80;65.20;;;;;;5064238;28;45361;-74
2021/12/24 08:21:46;;;;;;;5.88;2.70;;;16.80;65.10;;;;;;5065527;28;46452;-74
2021/12/24 08:24:13;;;;;;;2.97;2.15;;;16.80;65.10;;;;;;5064844;28;45382;-74
2021/12/24 08:26:41;;;;;;;4.60;2.38;;;16.90;65.30;;;;;;5062544;28;45215;-74
2021/12/24 08:29:08;;;;;;;5.22;2.85;;;16.90;65.20;;;;;;5065839;28;45193;-74
2021/12/24 08:31:35;;;;;;;4.35;2.53;;;16.90;65.40;;;;;;5060327;28;47328;-74
2021/12/24 08:34:03;;;;;;;4.40;2.35;;;16.80;65.10;;;;;;5061782;28;45248;-73
2021/12/24 08:36:30;;;;;;;3.80;2.17;;;16.90;65.50;;;;;;5058998;28;45364;-74
2021/12/24 08:38:57;;;;;;;4.43;2.17;;;16.90;65.50;;;;;;5060961;28;45152;-74
2021/12/24 08:41:24;;;;;;;5.07;2.60;;;16.90;65.30;;;;;;5055906;28;46452;-75
2021/12/24 08:43:53;;;;;;;3.92;2.33;;;17.00;66.50;;;;;;5067916;28;45567;-75
2021/12/24 08:46:20;;;;;;;4.80;2.70;;;17.00;65.30;;;;;;5054919;28;45425;-75
2021/12/24 08:48:47;;;;;;;5.38;2.60;;;17.00;65.00;;;;;;5049708;28;45608;-75
2021/12/24 08:51:14;;;;;;;4.05;2.60;;;17.00;65.20;;;;;;5064755;28;45440;-75
2021/12/24 08:53:41;;;;;;;5.50;2.13;;;17.00;65.00;;;;;;5057752;28;45219;-74
2021/12/24 08:56:08;;;;;;;4.03;2.30;;;17.00;65.10;;;;;;5056939;28;45243;-73
2021/12/24 08:58:37;;;;;;;4.93;2.72;;;16.90;65.10;;;;;;5062349;28;45617;-74
2021/12/24 09:01:05;;;;;;;4.68;2.42;;;17.00;65.20;;;;;;5059936;28;47261;-73
2021/12/24 09:03:33;;;;;;;4.72;2.70;;;17.00;65.20;;;;;;5057702;28;45278;-74
2021/12/24 09:06:00;;;;;;;3.28;2.08;;;16.90;65.20;;;;;;5066968;28;45470;-75
2021/12/24 09:08:28;;;;;;;4.25;2.55;;;17.00;65.40;;;;;;5063438;28;45279;-75
2021/12/24 09:10:54;;;;;;;4.88;2.53;;;17.00;65.40;;;;;;5054146;28;45622;-76
2021/12/24 09:13:22;;;;;;;4.97;2.47;;;17.00;65.50;;;;;;5063856;28;45366;-76
2021/12/24 09:15:53;;;;;;;3.63;2.30;;;17.00;65.30;;;;;;5066101;28;45298;-76
2021/12/24 09:18:22;;;;;;;6.05;2.75;;;17.00;65.30;;;;;;5066395;28;45395;-75
2021/12/24 09:20:49;;;;;;;4.28;2.40;;;17.00;65.40;;;;;;5068069;28;45522;-75
2021/12/24 09:23:18;;;;;;;4.40;2.50;;;17.00;65.20;;;;;;5067683;28;45835;-76
2021/12/24 09:25:45;;;;;;;3.72;2.03;;;16.90;65.10;;;;;;5067884;28;45330;-76
2021/12/24 09:28:13;;;;;;;3.33;2.28;;;16.90;65.20;;;;;;5059355;28;45527;-76
2021/12/24 09:30:41;;;;;;;4.88;2.30;;;16.90;65.20;;;;;;5059896;28;47909;-75
2021/12/24 09:33:09;;;;;;;4.53;2.25;;;16.90;65.40;;;;;;5064893;28;45213;-75
2021/12/24 09:35:37;;;;;;;3.30;1.92;;;16.90;65.40;;;;;;5066764;28;45266;-76
2021/12/24 09:38:04;;;;;;;5.38;2.67;;;16.90;65.20;;;;;;5064858;28;45544;-76
2021/12/24 09:40:35;;;;;;;4.28;2.10;;;16.90;65.20;;;;;;5060642;28;47708;-75
2021/12/24 09:43:04;;;;;;;4.55;2.33;;;16.90;65.20;;;;;;5063944;28;45251;-75
2021/12/24 09:45:31;;;;;;;5.28;2.00;;;16.90;65.20;;;;;;5061298;28;45349;-75
2021/12/24 09:47:58;;;;;;;4.40;2.20;;;16.90;65.20;;;;;;5061623;28;45377;-75
2021/12/24 09:50:28;;;;;;;5.03;2.83;;;16.90;65.10;;;;;;5059707;28;47642;-75
2021/12/24 09:52:57;;;;;;;4.43;2.20;;;16.90;65.00;;;;;;5060351;28;45509;-75
2021/12/24 09:55:26;;;;;;;4.00;2.60;;;16.90;65.20;;;;;;5066302;28;45393;-75
2021/12/24 09:57:53;;;;;;;6.43;2.35;;;16.90;65.50;;;;;;5054648;28;45374;-75
2021/12/24 10:00:22;;;;;;;4.10;2.10;;;16.80;65.60;;;;;;5060964;28;47020;-75
2021/12/24 10:02:53;;;;;;;5.97;2.70;;;16.80;65.70;;;;;;5061331;28;46498;-75
2021/12/24 10:05:36;;;;;;;3.17;2.28;;;16.80;65.90;;;;;;5062374;28;45434;-75
2021/12/24 10:08:10;;;;;;;5.07;2.70;;;16.80;66.10;;;;;;5066252;28;45660;-75
2021/12/24 10:10:42;;;;;;;4.25;2.50;;;16.80;66.30;;;;;;5062377;28;47297;-75
2021/12/24 10:13:29;;;;;;;4.80;2.30;;;16.80;66.40;;;;;;5053262;28;45343;-75
2021/12/24 10:15:58;;;;;;;4.72;2.55;;;16.90;66.40;;;;;;5056657;28;45345;-76
2021/12/24 10:18:36;;;;;;;3.90;2.40;;;16.90;66.30;;;;;;5051195;28;45460;-76
2021/12/24 10:21:07;;;;;;;4.70;2.55;;;16.90;66.30;;;;;;5066264;28;47412;-75
2021/12/24 10:23:47;;;;;;;3.80;2.05;;;16.90;65.90;;;;;;5059698;28;45462;-75
2021/12/24 10:26:18;;;;;;;3.35;2.22;;;16.90;65.50;;;;;;5057814;28;45239;-75
2021/12/24 10:29:03;;;;;;;4.97;2.58;;;16.90;65.40;;;;;;5056478;28;45169;-76
2021/12/24 10:31:33;;;;;;;4.57;2.33;;;16.90;65.20;;;;;;5055533;28;47407;-76
2021/12/24 10:34:27;;;;;;;8.30;2.70;;;16.90;65.00;;;;;;5055789;28;45188;-75
2021/12/24 10:37:03;;;;;;;5.13;2.47;;;16.90;65.00;;;;;;5021537;28;45226;-76
2021/12/24 10:39:35;;;;;;;6.45;2.85;;;16.90;65.00;;;;;;5070445;28;45775;-76
2021/12/24 10:42:06;;;;;;;6.95;2.45;;;16.90;65.50;;;;;;5067442;28;46502;-77
2021/12/24 10:44:36;;;;;;;4.47;2.58;;;16.90;65.60;;;;;;5064956;28;45344;-77
2021/12/24 10:47:08;;;;;;;4.30;2.28;;;16.80;65.40;;;;;;5063718;28;45697;-77
2021/12/24 10:52:47;;;;;;;6.47;2.50;;;16.90;65.60;;;;;;5058436;28;45659;-77
2021/12/24 10:55:18;;;;;;;4.90;2.60;;;16.90;65.40;;;;;;5060255;28;45357;-77
2021/12/24 10:57:47;;;;;;;3.75;2.08;;;16.90;65.40;;;;;;5065315;28;45501;-77
2021/12/24 11:00:24;;;;;;;4.32;2.40;;;16.90;65.40;;;;;;5067211;28;45434;-76
2021/12/24 11:02:54;;;;;;;3.70;2.20;;;16.90;65.70;;;;;;5058013;28;47614;-76
2021/12/24 11:05:28;;;;;;;5.13;2.55;;;17.00;65.90;;;;;;5058225;28;45287;-76
2021/12/24 11:07:57;;;;;;;4.97;2.63;;;17.00;66.10;;;;;;5060019;28;45285;-76
2021/12/24 11:10:27;;;;;;;5.57;2.97;;;16.90;66.10;;;;;;5069676;28;45401;-76
2021/12/24 11:12:57;;;;;;;6.32;2.67;;;17.00;66.30;;;;;;5067942;28;47676;-76
2021/12/24 11:15:31;;;;;;;3.42;2.20;;;16.90;66.20;;;;;;5063501;28;45450;-76
2021/12/24 11:18:01;;;;;;;4.18;2.50;;;16.90;66.10;;;;;;5061385;28;45311;-76
2021/12/24 11:20:30;;;;;;;5.45;2.22;;;16.90;66.30;;;;;;5055955;28;45345;-76
2021/12/24 11:23:03;;;;;;;4.75;2.45;;;16.90;65.90;;;;;;5064565;28;47424;-76
2021/12/24 11:25:34;;;;;;;4.00;2.50;;;16.90;66.00;;;;;;5065596;28;45683;-76
2021/12/24 11:28:03;;;;;;;5.57;2.53;;;16.90;66.20;;;;;;5069133;28;45239;-76
2021/12/24 11:30:31;;;;;;;4.63;2.35;;;16.90;66.10;;;;;;5057845;28;45215;-76
2021/12/24 11:32:59;;;;;;;4.43;2.28;;;16.90;65.90;;;;;;5062430;28;46207;-76
2021/12/24 11:35:27;;;;;;;3.88;2.25;;;17.00;65.70;;;;;;5060532;28;45334;-76
2021/12/24 11:37:55;;;;;;;6.03;1.95;;;17.00;65.70;;;;;;5068633;28;45167;-76
2021/12/24 11:40:25;;;;;;;5.82;2.47;;;16.90;65.50;;;;;;5061609;28;45203;-76
2021/12/24 11:42:58;;;;;;;4.22;2.13;;;17.00;66.00;;;;;;5067411;28;48471;-77
2021/12/24 11:45:27;;;;;;;5.15;2.13;;;16.90;66.20;;;;;;5060176;28;45231;-77
2021/12/24 11:47:55;;;;;;;3.97;2.05;;;17.00;66.10;;;;;;5052401;28;45370;-77
2021/12/24 11:50:25;;;;;;;4.45;2.20;;;17.00;66.10;;;;;;5056469;28;45127;-77
2021/12/24 11:52:55;;;;;;;4.93;2.60;;;17.00;65.90;;;;;;5051211;28;46766;-75
2021/12/24 11:55:23;;;;;;;5.47;2.20;;;17.00;66.30;;;;;;5060072;28;45373;-77
2021/12/24 11:57:55;;;;;;;6.50;2.60;;;17.00;66.10;;;;;;5064257;28;45521;-76
2021/12/24 12:00:25;;;;;;;3.28;2.30;;;17.10;66.00;;;;;;5067117;28;46638;-75
2021/12/24 12:02:53;;;;;;;3.88;2.13;;;17.20;66.00;;;;;;5061264;28;47411;-78
2021/12/24 12:05:26;;;;;;;4.25;2.58;;;17.20;65.90;;;;;;5067270;28;45310;-78
2021/12/24 12:08:13;;;;;;;3.10;2.10;;;17.10;65.60;;;;;;5061519;28;45350;-78
2021/12/24 12:10:53;;;;;;;6.20;2.60;;;17.20;65.60;;;;;;5069137;28;45560;-77
2021/12/24 12:13:41;;;;;;;4.13;2.25;;;17.20;65.60;;;;;;5063707;28;47194;-77
2021/12/24 12:16:10;;;;;;;4.15;2.20;;;17.20;65.90;;;;;;5063938;28;45445;-77
2021/12/24 12:18:44;;;;;;;3.47;2.00;;;17.20;65.80;;;;;;5068297;28;46723;-77
2021/12/24 12:21:13;;;;;;;4.85;2.30;;;17.20;65.70;;;;;;5060589;28;45501;-77
2021/12/24 12:23:54;;;;;;;3.50;2.13;;;17.20;65.70;;;;;;5064322;28;48681;-77
2021/12/24 12:26:37;;;;;;;4.40;2.10;;;17.20;65.80;;;;;;5063145;28;46045;-77
2021/12/24 12:29:25;;;;;;;5.75;2.60;;;17.20;65.80;;;;;;5060759;28;45283;-78
2021/12/24 12:31:56;;;;;;;4.35;2.22;;;17.20;66.10;;;;;;5063201;28;45190;-77
2021/12/24 12:34:49;;;;;;;4.03;2.13;;;17.20;65.70;;;;;;5066388;28;47269;-78
2021/12/24 12:37:21;;;;;;;4.30;2.33;;;17.30;65.60;;;;;;5062228;28;45841;-78
2021/12/24 12:39:52;;;;;;;2.83;1.80;;;17.30;65.60;;;;;;5066357;28;45152;-78
2021/12/24 12:42:22;;;;;;;6.70;2.67;;;17.30;65.40;;;;;;5066682;28;46623;-77
2021/12/24 12:44:53;;;;;;;5.68;2.38;;;17.30;65.30;;;;;;5061090;28;46203;-77
2021/12/24 12:47:23;;;;;;;4.20;2.17;;;17.30;65.30;;;;;;5066344;28;45164;-78
2021/12/24 12:49:55;;;;;;;5.57;2.60;;;17.30;65.20;;;;;;5070654;28;45273;-79
2021/12/24 12:52:29;;;;;;;3.50;1.75;;;17.40;65.20;;;;;;5052299;28;45188;-78
2021/12/24 12:54:57;;;;;;;3.67;2.20;;;17.40;65.10;;;;;;5059814;28;46649;-77
2021/12/24 12:57:31;;;;;;;4.85;2.60;;;17.40;65.00;;;;;;5054363;28;45221;-77
2021/12/24 13:00:20;;;;;;;4.38;2.13;;;17.40;65.00;;;;;;5062913;28;45278;-77
2021/12/24 13:03:09;;;;;;;4.68;2.20;;;17.40;65.00;;;;;;5064097;28;45344;-77
2021/12/24 13:05:58;;;;;;;4.93;1.95;;;17.40;65.00;;;;;;5062169;28;46168;-77
2021/12/24 13:08:27;;;;;;;3.72;2.00;;;17.40;65.00;;;;;;5052285;28;45562;-76
2021/12/24 13:10:56;;;;;;;4.00;1.83;;;17.40;65.00;;;;;;5062436;28;45460;-77
2021/12/24 13:13:25;;;;;;;5.45;2.30;;;17.30;65.00;;;;;;5056667;28;45317;-76
2021/12/24 13:15:52;;;;;;;4.78;2.13;;;17.30;65.20;;;;;;5065458;28;47044;-77
2021/12/24 13:18:26;;;;;;;3.63;2.08;;;17.30;65.30;;;;;;5057990;28;45315;-77
2021/12/24 13:23:42;;;;;;;7.07;2.40;;;17.30;65.40;;;;;;5060652;28;45354;-77
2021/12/24 13:26:11;;;;;;;4.60;2.17;;;17.30;65.40;;;;;;5060356;28;47817;-76
2021/12/24 13:28:55;;;;;;;3.53;2.10;;;17.20;65.30;;;;;;5058418;28;45258;-77
2021/12/24 13:31:22;;;;;;;5.78;2.10;;;17.50;65.80;;;;;;5062026;28;45253;-76
2021/12/24 13:33:49;;;;;;;4.65;2.38;;;17.20;65.30;;;;;;5062403;28;45283;-78
2021/12/24 13:36:22;;;;;;;4.97;2.47;;;17.20;65.20;;;;;;5059832;28;46457;-78
2021/12/24 13:38:49;;;;;;;4.32;1.85;;;17.20;65.60;;;;;;5060322;28;45927;-77
2021/12/24 13:41:16;;;;;;;3.70;2.28;;;17.20;65.70;;;;;;5060098;28;45251;-78
2021/12/24 13:43:43;;;;;;;3.72;2.00;;;17.20;65.80;;;;;;5057699;28;45312;-78
2021/12/24 13:46:13;;;;;;;4.22;2.40;;;17.20;65.90;;;;;;5061324;28;48512;-78
2021/12/24 13:48:56;;;;;;;7.97;2.10;;;17.20;65.90;;;;;;5057651;28;45303;-77
2021/12/24 13:56:51;;;;;;;4.60;2.22;;;17.20;65.80;;;;;;5064384;28;45585;-77
2021/12/24 13:59:22;;;;;;;5.28;2.25;;;17.20;65.80;;;;;;5056980;28;45225;-77
2021/12/24 14:01:51;;;;;;;4.60;2.60;;;17.20;65.70;;;;;;5050431;28;45342;-77
2021/12/24 14:04:19;;;;;;;5.93;2.55;;;17.20;65.80;;;;;;5063142;28;45394;-77
2021/12/24 14:06:50;;;;;;;5.30;2.42;;;17.20;65.70;;;;;;5056359;28;46623;-77
2021/12/24 14:09:19;;;;;;;4.15;2.10;;;17.20;65.80;;;;;;5058719;28;45353;-77
2021/12/24 14:11:48;;;;;;;6.22;2.45;;;17.20;65.90;;;;;;5060868;28;45152;-77
2021/12/24 14:14:21;;;;;;;3.58;2.13;;;17.20;66.30;;;;;;5059607;28;45460;-77
2021/12/24 14:17:03;;;;;;;4.45;2.22;;;17.20;65.90;;;;;;5057338;28;46776;-77
2021/12/24 14:19:47;;;;;;;3.88;2.00;;;17.20;66.00;;;;;;5054154;28;45244;-77
2021/12/24 14:22:18;;;;;;;3.15;1.85;;;17.10;66.30;;;;;;5056522;28;45294;-77
2021/12/24 14:24:53;;;;;;;3.13;1.90;;;17.20;66.50;;;;;;5059987;28;45307;-77
2021/12/24 14:27:22;;;;;;;3.55;1.92;;;17.20;66.40;;;;;;5056832;28;45646;-77
2021/12/24 14:29:56;;;;;;;5.70;2.28;;;17.20;66.60;;;;;;5063780;28;45464;-77
2021/12/24 14:32:30;;;;;;;4.25;1.98;;;17.20;66.80;;;;;;5049584;28;45318;-77
2021/12/24 14:35:01;;;;;;;4.07;1.83;;;17.20;67.10;;;;;;5059707;28;45367;-77